This is the latest recevied weather packets stored in our database for station/object 9W2RUT-G. If no packets are shown the sender has not sent any weather packets the latest 10 day(s).
| Time | Temp. | Humidity | Pressure | Rain* | Wind** | Luminosity | Snow |
|---|---|---|---|---|---|---|---|
| 1777500072 | 22.22° C | 35% | 1012.3 hPa | - | - | - | - |
| 1777500040 | 22.22° C | 35% | 1012.3 hPa | - | - | - | - |
| 1777499139 | 21.67° C | 32% | 1012.3 hPa | - | - | - | - |
| 1777498239 | 22.22° C | 36% | 1012.6 hPa | - | - | - | - |
| 1777497339 | 22.22° C | 31% | 1012.4 hPa | - | - | - | - |
| 1777496438 | 22.78° C | 37% | 1012.5 hPa | - | - | - | - |
| 1777495538 | 21.67° C | 31% | 1012.4 hPa | - | - | - | - |
| 1777494637 | 22.22° C | 32% | 1012.3 hPa | - | - | - | - |
| 1777493736 | 21.67° C | 31% | 1012.5 hPa | - | - | - | - |
| 1777492873 | 21.67° C | 32% | 1012.7 hPa | - | - | - | - |
| 1777492836 | 21.67° C | 32% | 1012.7 hPa | - | - | - | - |
| 1777491936 | 21.67° C | 31% | 1012.9 hPa | - | - | - | - |
| 1777491036 | 22.22° C | 31% | 1013 hPa | - | - | - | - |
| 1777490135 | 22.22° C | 30% | 1013.1 hPa | - | - | - | - |
| 1777489235 | 22.22° C | 31% | 1013.2 hPa | - | - | - | - |
| 1777488334 | 22.78° C | 31% | 1013.3 hPa | - | - | - | - |
| 1777487434 | 22.78° C | 30% | 1013.3 hPa | - | - | - | - |
| 1777486534 | 22.78° C | 30% | 1013.3 hPa | - | - | - | - |
| 1777485634 | 22.78° C | 30% | 1013.6 hPa | - | - | - | - |
| 1777484733 | 23.33° C | 30% | 1013.8 hPa | - | - | - | - |
| 1777483925 | 23.33° C | 30% | 1013.9 hPa | - | - | - | - |
| 1777483832 | 23.33° C | 30% | 1013.9 hPa | - | - | - | - |
| 1777482932 | 23.89° C | 30% | 1014 hPa | - | - | - | - |
| 1777482031 | 23.89° C | 29% | 1014 hPa | - | - | - | - |
| 1777481131 | 23.89° C | 29% | 1014 hPa | - | - | - | - |
* Rain since midnight (hover to see other rain measurements)
** Current wind speed in m/s (hover to see current wind gust speed)